< < Back
Terminal Aerodrome Forecast


Current Version              Previous Versions:   1  2  3  4  5  6  7  8  9  

Terminal Aerodrome Forecast

206
FTUS42 KCAE 251728
TAFAGS
TAF
KAGS 251728Z 2518/2618 01008KT P6SM SCT040
     FM260200 05005KT P6SM SCT250
     FM261400 05008KT P6SM SCT025=

Latest METAR

931
SAUS70 KWBC 251700 RRC
MTRAGS
METAR KAGS 251653Z 35010G14KT 10SM CLR 36/19 A3005 RMK AO2 SLP172
T03560194


USA.gov is the U.S. government's official web portal to all federal, state and local government web resources and services.